sensor_id;sensor_type;location;lat;lon;timestamp;P1;durP1;ratioP1;P2;durP2;ratioP2
19127;SDS011;9696;53.686;10.094;2022-07-06T00:00:37;4.25;;;1.17;;
19127;SDS011;9696;53.686;10.094;2022-07-06T00:03:06;2.57;;;0.83;;
19127;SDS011;9696;53.686;10.094;2022-07-06T00:05:34;5.70;;;1.33;;
19127;SDS011;9696;53.686;10.094;2022-07-06T00:08:03;6.50;;;1.00;;
19127;SDS011;9696;53.686;10.094;2022-07-06T00:10:32;4.05;;;0.90;;
19127;SDS011;9696;53.686;10.094;2022-07-06T00:13:00;5.53;;;0.97;;
19127;SDS011;9696;53.686;10.094;2022-07-06T00:15:28;8.83;;;1.23;;
19127;SDS011;9696;53.686;10.094;2022-07-06T00:17:58;7.00;;;1.30;;
19127;SDS011;9696;53.686;10.094;2022-07-06T00:20:27;4.83;;;1.10;;
19127;SDS011;9696;53.686;10.094;2022-07-06T00:22:55;5.20;;;1.20;;
19127;SDS011;9696;53.686;10.094;2022-07-06T00:25:23;5.23;;;0.90;;
19127;SDS011;9696;53.686;10.094;2022-07-06T00:27:52;5.30;;;1.30;;
19127;SDS011;9696;53.686;10.094;2022-07-06T00:30:20;3.73;;;1.00;;
19127;SDS011;9696;53.686;10.094;2022-07-06T00:32:49;5.63;;;1.13;;
19127;SDS011;9696;53.686;10.094;2022-07-06T00:35:19;4.83;;;0.90;;
19127;SDS011;9696;53.686;10.094;2022-07-06T00:37:49;3.77;;;1.00;;
19127;SDS011;9696;53.686;10.094;2022-07-06T00:40:18;4.30;;;0.97;;
19127;SDS011;9696;53.686;10.094;2022-07-06T00:42:47;4.43;;;1.07;;
19127;SDS011;9696;53.686;10.094;2022-07-06T00:45:16;6.37;;;1.43;;
19127;SDS011;9696;53.686;10.094;2022-07-06T00:47:45;5.10;;;0.93;;
19127;SDS011;9696;53.686;10.094;2022-07-06T00:50:14;5.93;;;1.20;;
19127;SDS011;9696;53.686;10.094;2022-07-06T00:52:48;6.57;;;1.17;;
19127;SDS011;9696;53.686;10.094;2022-07-06T00:55:20;7.10;;;1.20;;
19127;SDS011;9696;53.686;10.094;2022-07-06T00:57:49;5.80;;;0.80;;
19127;SDS011;9696;53.686;10.094;2022-07-06T01:00:21;3.90;;;0.83;;
19127;SDS011;9696;53.686;10.094;2022-07-06T01:02:51;7.60;;;1.37;;
19127;SDS011;9696;53.686;10.094;2022-07-06T01:05:20;9.63;;;1.23;;
19127;SDS011;9696;53.686;10.094;2022-07-06T01:07:51;4.28;;;1.13;;
19127;SDS011;9696;53.686;10.094;2022-07-06T01:10:20;10.27;;;1.17;;
19127;SDS011;9696;53.686;10.094;2022-07-06T01:12:49;3.97;;;1.00;;
19127;SDS011;9696;53.686;10.094;2022-07-06T01:15:18;5.30;;;1.03;;
19127;SDS011;9696;53.686;10.094;2022-07-06T01:17:48;6.50;;;1.60;;
19127;SDS011;9696;53.686;10.094;2022-07-06T01:20:19;3.97;;;0.97;;
19127;SDS011;9696;53.686;10.094;2022-07-06T01:22:48;5.67;;;0.97;;
19127;SDS011;9696;53.686;10.094;2022-07-06T01:25:18;4.83;;;1.13;;
19127;SDS011;9696;53.686;10.094;2022-07-06T01:27:47;5.50;;;1.17;;
19127;SDS011;9696;53.686;10.094;2022-07-06T01:30:16;5.97;;;0.70;;
19127;SDS011;9696;53.686;10.094;2022-07-06T01:32:45;2.93;;;1.07;;
19127;SDS011;9696;53.686;10.094;2022-07-06T01:35:14;3.63;;;0.80;;
19127;SDS011;9696;53.686;10.094;2022-07-06T01:37:44;2.60;;;0.80;;
19127;SDS011;9696;53.686;10.094;2022-07-06T01:40:12;5.60;;;1.17;;
19127;SDS011;9696;53.686;10.094;2022-07-06T01:42:41;5.03;;;1.00;;
19127;SDS011;9696;53.686;10.094;2022-07-06T01:45:10;4.87;;;1.27;;
19127;SDS011;9696;53.686;10.094;2022-07-06T01:47:38;4.20;;;1.00;;
19127;SDS011;9696;53.686;10.094;2022-07-06T01:50:07;2.53;;;0.73;;
19127;SDS011;9696;53.686;10.094;2022-07-06T01:52:36;4.43;;;1.03;;
19127;SDS011;9696;53.686;10.094;2022-07-06T01:55:06;7.83;;;1.30;;
19127;SDS011;9696;53.686;10.094;2022-07-06T01:57:35;4.67;;;0.70;;
19127;SDS011;9696;53.686;10.094;2022-07-06T02:00:05;6.77;;;1.10;;
19127;SDS011;9696;53.686;10.094;2022-07-06T02:02:34;4.17;;;1.03;;
19127;SDS011;9696;53.686;10.094;2022-07-06T02:05:03;5.07;;;0.83;;
19127;SDS011;9696;53.686;10.094;2022-07-06T02:07:31;1.67;;;0.80;;
19127;SDS011;9696;53.686;10.094;2022-07-06T02:10:00;0.70;;;0.50;;
19127;SDS011;9696;53.686;10.094;2022-07-06T02:12:30;0.67;;;0.67;;
19127;SDS011;9696;53.686;10.094;2022-07-06T02:14:58;2.17;;;0.70;;
19127;SDS011;9696;53.686;10.094;2022-07-06T02:17:27;3.90;;;0.80;;
19127;SDS011;9696;53.686;10.094;2022-07-06T02:19:55;4.37;;;0.60;;
19127;SDS011;9696;53.686;10.094;2022-07-06T02:22:24;1.10;;;0.53;;
19127;SDS011;9696;53.686;10.094;2022-07-06T02:24:52;1.97;;;0.70;;
19127;SDS011;9696;53.686;10.094;2022-07-06T02:27:21;5.60;;;0.70;;
19127;SDS011;9696;53.686;10.094;2022-07-06T02:29:50;1.63;;;0.70;;
19127;SDS011;9696;53.686;10.094;2022-07-06T02:32:19;0.97;;;0.80;;
19127;SDS011;9696;53.686;10.094;2022-07-06T02:34:48;3.07;;;0.50;;
19127;SDS011;9696;53.686;10.094;2022-07-06T02:37:16;1.83;;;0.80;;
19127;SDS011;9696;53.686;10.094;2022-07-06T02:39:45;1.73;;;0.70;;
19127;SDS011;9696;53.686;10.094;2022-07-06T02:42:13;1.73;;;0.73;;
19127;SDS011;9696;53.686;10.094;2022-07-06T02:44:42;4.93;;;0.80;;
19127;SDS011;9696;53.686;10.094;2022-07-06T02:47:11;4.70;;;0.70;;
19127;SDS011;9696;53.686;10.094;2022-07-06T02:49:40;4.73;;;0.73;;
19127;SDS011;9696;53.686;10.094;2022-07-06T02:52:08;2.83;;;0.70;;
19127;SDS011;9696;53.686;10.094;2022-07-06T02:54:36;1.83;;;0.67;;
19127;SDS011;9696;53.686;10.094;2022-07-06T02:57:05;2.13;;;0.70;;
19127;SDS011;9696;53.686;10.094;2022-07-06T02:59:33;1.77;;;0.80;;
19127;SDS011;9696;53.686;10.094;2022-07-06T03:02:02;3.10;;;0.67;;
19127;SDS011;9696;53.686;10.094;2022-07-06T03:04:33;2.00;;;0.83;;
19127;SDS011;9696;53.686;10.094;2022-07-06T03:07:01;2.23;;;0.70;;
19127;SDS011;9696;53.686;10.094;2022-07-06T03:09:30;6.30;;;0.87;;
19127;SDS011;9696;53.686;10.094;2022-07-06T03:11:58;4.00;;;0.70;;
19127;SDS011;9696;53.686;10.094;2022-07-06T03:14:27;2.77;;;0.77;;
19127;SDS011;9696;53.686;10.094;2022-07-06T03:16:55;2.20;;;0.80;;
19127;SDS011;9696;53.686;10.094;2022-07-06T03:19:24;2.57;;;0.90;;
19127;SDS011;9696;53.686;10.094;2022-07-06T03:21:54;7.00;;;1.23;;
19127;SDS011;9696;53.686;10.094;2022-07-06T03:24:22;4.73;;;1.30;;
19127;SDS011;9696;53.686;10.094;2022-07-06T03:26:51;1.13;;;0.70;;
19127;SDS011;9696;53.686;10.094;2022-07-06T03:29:19;2.30;;;0.73;;
19127;SDS011;9696;53.686;10.094;2022-07-06T03:31:48;9.23;;;1.03;;
19127;SDS011;9696;53.686;10.094;2022-07-06T03:34:17;3.80;;;1.00;;
19127;SDS011;9696;53.686;10.094;2022-07-06T03:36:45;3.57;;;1.10;;
19127;SDS011;9696;53.686;10.094;2022-07-06T03:39:15;6.93;;;0.73;;
19127;SDS011;9696;53.686;10.094;2022-07-06T03:41:43;9.50;;;1.10;;
19127;SDS011;9696;53.686;10.094;2022-07-06T03:44:12;2.43;;;0.73;;
19127;SDS011;9696;53.686;10.094;2022-07-06T03:46:40;2.90;;;0.70;;
19127;SDS011;9696;53.686;10.094;2022-07-06T03:49:09;3.80;;;1.47;;
19127;SDS011;9696;53.686;10.094;2022-07-06T03:51:37;7.23;;;1.23;;
19127;SDS011;9696;53.686;10.094;2022-07-06T03:54:06;2.87;;;0.80;;
19127;SDS011;9696;53.686;10.094;2022-07-06T03:56:36;1.47;;;0.60;;
19127;SDS011;9696;53.686;10.094;2022-07-06T03:59:04;1.87;;;1.00;;
19127;SDS011;9696;53.686;10.094;2022-07-06T04:01:33;1.83;;;0.70;;
19127;SDS011;9696;53.686;10.094;2022-07-06T04:04:01;4.73;;;0.70;;
19127;SDS011;9696;53.686;10.094;2022-07-06T04:06:30;4.93;;;0.70;;
19127;SDS011;9696;53.686;10.094;2022-07-06T04:09:00;4.27;;;0.63;;
19127;SDS011;9696;53.686;10.094;2022-07-06T04:11:29;3.30;;;1.20;;
19127;SDS011;9696;53.686;10.094;2022-07-06T04:13:59;1.53;;;0.80;;
19127;SDS011;9696;53.686;10.094;2022-07-06T04:16:27;2.50;;;0.80;;
19127;SDS011;9696;53.686;10.094;2022-07-06T04:18:56;3.10;;;1.00;;
19127;SDS011;9696;53.686;10.094;2022-07-06T04:21:24;4.30;;;1.20;;
19127;SDS011;9696;53.686;10.094;2022-07-06T04:23:53;1.70;;;0.67;;
19127;SDS011;9696;53.686;10.094;2022-07-06T04:26:21;3.23;;;0.87;;
19127;SDS011;9696;53.686;10.094;2022-07-06T04:28:50;2.40;;;1.17;;
19127;SDS011;9696;53.686;10.094;2022-07-06T04:31:20;1.90;;;0.87;;
19127;SDS011;9696;53.686;10.094;2022-07-06T04:33:49;2.80;;;0.90;;
19127;SDS011;9696;53.686;10.094;2022-07-06T04:36:17;0.93;;;0.70;;
19127;SDS011;9696;53.686;10.094;2022-07-06T04:38:46;2.83;;;1.00;;
19127;SDS011;9696;53.686;10.094;2022-07-06T04:41:14;2.00;;;0.83;;
19127;SDS011;9696;53.686;10.094;2022-07-06T04:43:43;4.70;;;1.20;;
19127;SDS011;9696;53.686;10.094;2022-07-06T04:46:11;4.33;;;1.17;;
19127;SDS011;9696;53.686;10.094;2022-07-06T04:48:41;4.37;;;1.13;;
19127;SDS011;9696;53.686;10.094;2022-07-06T04:51:10;3.33;;;0.73;;
19127;SDS011;9696;53.686;10.094;2022-07-06T04:53:39;9.03;;;1.03;;
19127;SDS011;9696;53.686;10.094;2022-07-06T04:56:07;7.67;;;1.37;;
19127;SDS011;9696;53.686;10.094;2022-07-06T04:58:36;4.27;;;0.83;;
19127;SDS011;9696;53.686;10.094;2022-07-06T05:01:04;4.83;;;0.93;;
19127;SDS011;9696;53.686;10.094;2022-07-06T05:03:35;4.80;;;0.90;;
19127;SDS011;9696;53.686;10.094;2022-07-06T05:06:08;5.03;;;0.90;;
19127;SDS011;9696;53.686;10.094;2022-07-06T05:08:37;4.67;;;1.10;;
19127;SDS011;9696;53.686;10.094;2022-07-06T05:11:05;4.23;;;1.20;;
19127;SDS011;9696;53.686;10.094;2022-07-06T05:13:34;4.67;;;1.03;;
19127;SDS011;9696;53.686;10.094;2022-07-06T05:16:02;4.17;;;0.97;;
19127;SDS011;9696;53.686;10.094;2022-07-06T05:18:31;5.70;;;0.90;;
19127;SDS011;9696;53.686;10.094;2022-07-06T05:21:00;5.40;;;1.13;;
19127;SDS011;9696;53.686;10.094;2022-07-06T05:23:30;5.83;;;1.00;;
19127;SDS011;9696;53.686;10.094;2022-07-06T05:25:58;2.87;;;0.63;;
19127;SDS011;9696;53.686;10.094;2022-07-06T05:28:26;3.20;;;0.80;;
19127;SDS011;9696;53.686;10.094;2022-07-06T05:31:01;2.93;;;0.90;;
19127;SDS011;9696;53.686;10.094;2022-07-06T05:33:30;4.07;;;0.90;;
19127;SDS011;9696;53.686;10.094;2022-07-06T05:35:58;4.23;;;1.30;;
19127;SDS011;9696;53.686;10.094;2022-07-06T05:38:27;5.03;;;0.97;;
19127;SDS011;9696;53.686;10.094;2022-07-06T05:40:59;2.83;;;0.97;;
19127;SDS011;9696;53.686;10.094;2022-07-06T05:43:27;5.33;;;1.03;;
19127;SDS011;9696;53.686;10.094;2022-07-06T05:45:56;3.60;;;1.10;;
19127;SDS011;9696;53.686;10.094;2022-07-06T05:48:24;3.60;;;0.70;;
19127;SDS011;9696;53.686;10.094;2022-07-06T05:51:10;6.77;;;1.00;;
19127;SDS011;9696;53.686;10.094;2022-07-06T05:53:39;2.43;;;0.93;;
19127;SDS011;9696;53.686;10.094;2022-07-06T05:56:09;6.67;;;1.20;;
19127;SDS011;9696;53.686;10.094;2022-07-06T05:58:37;2.90;;;0.90;;
19127;SDS011;9696;53.686;10.094;2022-07-06T06:01:05;2.20;;;0.80;;
19127;SDS011;9696;53.686;10.094;2022-07-06T06:03:35;3.97;;;0.80;;
19127;SDS011;9696;53.686;10.094;2022-07-06T06:06:04;5.63;;;1.20;;
19127;SDS011;9696;53.686;10.094;2022-07-06T06:08:35;6.03;;;0.93;;
19127;SDS011;9696;53.686;10.094;2022-07-06T06:11:03;2.33;;;0.67;;
19127;SDS011;9696;53.686;10.094;2022-07-06T06:13:38;4.53;;;0.97;;
19127;SDS011;9696;53.686;10.094;2022-07-06T06:16:06;5.57;;;0.90;;
19127;SDS011;9696;53.686;10.094;2022-07-06T06:18:35;5.63;;;0.87;;
19127;SDS011;9696;53.686;10.094;2022-07-06T06:21:07;5.83;;;0.90;;
19127;SDS011;9696;53.686;10.094;2022-07-06T06:23:36;4.37;;;0.70;;
19127;SDS011;9696;53.686;10.094;2022-07-06T06:26:05;3.53;;;0.93;;
19127;SDS011;9696;53.686;10.094;2022-07-06T06:28:33;2.75;;;1.05;;
19127;SDS011;9696;53.686;10.094;2022-07-06T06:31:04;3.93;;;0.67;;
19127;SDS011;9696;53.686;10.094;2022-07-06T06:33:32;9.33;;;1.00;;
19127;SDS011;9696;53.686;10.094;2022-07-06T06:36:01;5.38;;;0.93;;
19127;SDS011;9696;53.686;10.094;2022-07-06T06:38:30;5.63;;;1.08;;
19127;SDS011;9696;53.686;10.094;2022-07-06T06:40:59;7.45;;;0.82;;
19127;SDS011;9696;53.686;10.094;2022-07-06T06:43:29;4.32;;;0.90;;
19127;SDS011;9696;53.686;10.094;2022-07-06T06:45:57;6.13;;;0.90;;
19127;SDS011;9696;53.686;10.094;2022-07-06T06:48:27;13.15;;;1.50;;
19127;SDS011;9696;53.686;10.094;2022-07-06T06:50:58;6.20;;;1.20;;
19127;SDS011;9696;53.686;10.094;2022-07-06T06:53:26;4.10;;;0.95;;
19127;SDS011;9696;53.686;10.094;2022-07-06T06:55:59;2.77;;;0.67;;
19127;SDS011;9696;53.686;10.094;2022-07-06T06:58:28;11.55;;;1.45;;
19127;SDS011;9696;53.686;10.094;2022-07-06T07:01:16;9.80;;;1.75;;
19127;SDS011;9696;53.686;10.094;2022-07-06T07:03:46;2.08;;;0.65;;
19127;SDS011;9696;53.686;10.094;2022-07-06T07:06:15;5.40;;;0.90;;
19127;SDS011;9696;53.686;10.094;2022-07-06T07:08:43;6.47;;;1.15;;
19127;SDS011;9696;53.686;10.094;2022-07-06T07:11:11;3.50;;;1.10;;
19127;SDS011;9696;53.686;10.094;2022-07-06T07:13:40;6.93;;;1.35;;
19127;SDS011;9696;53.686;10.094;2022-07-06T07:16:09;10.38;;;1.27;;
19127;SDS011;9696;53.686;10.094;2022-07-06T07:18:37;3.58;;;1.20;;
19127;SDS011;9696;53.686;10.094;2022-07-06T07:21:07;9.18;;;1.50;;
19127;SDS011;9696;53.686;10.094;2022-07-06T07:23:36;10.13;;;1.15;;
19127;SDS011;9696;53.686;10.094;2022-07-06T07:26:04;6.00;;;1.10;;
19127;SDS011;9696;53.686;10.094;2022-07-06T07:28:33;4.03;;;1.25;;
19127;SDS011;9696;53.686;10.094;2022-07-06T07:31:01;4.50;;;1.33;;
19127;SDS011;9696;53.686;10.094;2022-07-06T07:33:30;11.27;;;1.85;;
19127;SDS011;9696;53.686;10.094;2022-07-06T07:35:58;6.13;;;2.08;;
19127;SDS011;9696;53.686;10.094;2022-07-06T07:38:28;7.20;;;2.00;;
19127;SDS011;9696;53.686;10.094;2022-07-06T07:40:56;4.72;;;1.60;;
19127;SDS011;9696;53.686;10.094;2022-07-06T07:43:25;4.38;;;1.52;;
19127;SDS011;9696;53.686;10.094;2022-07-06T07:45:53;4.00;;;0.95;;
19127;SDS011;9696;53.686;10.094;2022-07-06T07:48:22;5.18;;;1.65;;
19127;SDS011;9696;53.686;10.094;2022-07-06T07:50:52;3.25;;;1.00;;
19127;SDS011;9696;53.686;10.094;2022-07-06T07:53:20;6.28;;;1.23;;
19127;SDS011;9696;53.686;10.094;2022-07-06T07:55:50;5.43;;;1.27;;
19127;SDS011;9696;53.686;10.094;2022-07-06T07:58:18;6.70;;;0.98;;
19127;SDS011;9696;53.686;10.094;2022-07-06T08:00:47;8.38;;;1.15;;
19127;SDS011;9696;53.686;10.094;2022-07-06T08:03:15;3.55;;;1.08;;
19127;SDS011;9696;53.686;10.094;2022-07-06T08:05:44;3.03;;;0.98;;
19127;SDS011;9696;53.686;10.094;2022-07-06T08:08:14;1.15;;;0.65;;
19127;SDS011;9696;53.686;10.094;2022-07-06T08:10:45;2.88;;;0.65;;
19127;SDS011;9696;53.686;10.094;2022-07-06T08:13:35;1.60;;;0.57;;
19127;SDS011;9696;53.686;10.094;2022-07-06T08:16:04;1.75;;;0.57;;
19127;SDS011;9696;53.686;10.094;2022-07-06T08:18:33;11.20;;;0.73;;
19127;SDS011;9696;53.686;10.094;2022-07-06T08:21:01;1.30;;;0.40;;
19127;SDS011;9696;53.686;10.094;2022-07-06T08:23:50;3.17;;;0.50;;
19127;SDS011;9696;53.686;10.094;2022-07-06T08:26:18;1.52;;;0.50;;
19127;SDS011;9696;53.686;10.094;2022-07-06T08:28:48;4.07;;;0.73;;
19127;SDS011;9696;53.686;10.094;2022-07-06T08:31:17;3.15;;;0.63;;
19127;SDS011;9696;53.686;10.094;2022-07-06T08:34:06;3.50;;;0.40;;
19127;SDS011;9696;53.686;10.094;2022-07-06T08:36:34;2.10;;;0.40;;
19127;SDS011;9696;53.686;10.094;2022-07-06T08:39:03;4.63;;;0.50;;
19127;SDS011;9696;53.686;10.094;2022-07-06T08:41:34;3.42;;;0.90;;
19127;SDS011;9696;53.686;10.094;2022-07-06T08:44:04;3.10;;;0.40;;
19127;SDS011;9696;53.686;10.094;2022-07-06T08:46:34;3.92;;;0.30;;
19127;SDS011;9696;53.686;10.094;2022-07-06T08:49:08;1.52;;;0.45;;
19127;SDS011;9696;53.686;10.094;2022-07-06T08:51:40;4.72;;;0.45;;
19127;SDS011;9696;53.686;10.094;2022-07-06T08:54:09;5.65;;;0.80;;
19127;SDS011;9696;53.686;10.094;2022-07-06T08:56:39;1.88;;;0.45;;
19127;SDS011;9696;53.686;10.094;2022-07-06T08:59:15;0.75;;;0.47;;
19127;SDS011;9696;53.686;10.094;2022-07-06T09:01:44;3.20;;;0.68;;
19127;SDS011;9696;53.686;10.094;2022-07-06T09:04:15;4.00;;;0.85;;
19127;SDS011;9696;53.686;10.094;2022-07-06T09:06:46;2.40;;;0.25;;
19127;SDS011;9696;53.686;10.094;2022-07-06T09:09:16;12.75;;;0.60;;
19127;SDS011;9696;53.686;10.094;2022-07-06T09:11:46;6.70;;;0.50;;
19127;SDS011;9696;53.686;10.094;2022-07-06T09:14:19;3.17;;;0.30;;
19127;SDS011;9696;53.686;10.094;2022-07-06T09:16:51;3.17;;;0.47;;
19127;SDS011;9696;53.686;10.094;2022-07-06T09:19:25;4.10;;;0.60;;
19127;SDS011;9696;53.686;10.094;2022-07-06T09:21:54;3.70;;;0.40;;
19127;SDS011;9696;53.686;10.094;2022-07-06T09:24:23;2.55;;;0.50;;
19127;SDS011;9696;53.686;10.094;2022-07-06T09:26:53;1.80;;;0.35;;
19127;SDS011;9696;53.686;10.094;2022-07-06T09:29:28;1.17;;;0.30;;
19127;SDS011;9696;53.686;10.094;2022-07-06T09:31:57;0.30;;;0.30;;
19127;SDS011;9696;53.686;10.094;2022-07-06T09:34:39;2.08;;;0.40;;
19127;SDS011;9696;53.686;10.094;2022-07-06T09:37:09;0.47;;;0.17;;
19127;SDS011;9696;53.686;10.094;2022-07-06T09:39:38;2.20;;;0.52;;
19127;SDS011;9696;53.686;10.094;2022-07-06T09:42:06;0.82;;;0.00;;
19127;SDS011;9696;53.686;10.094;2022-07-06T09:44:37;1.60;;;0.30;;
19127;SDS011;9696;53.686;10.094;2022-07-06T09:47:07;0.25;;;0.10;;
19127;SDS011;9696;53.686;10.094;2022-07-06T09:49:36;3.50;;;0.30;;
19127;SDS011;9696;53.686;10.094;2022-07-06T09:52:10;0.47;;;0.20;;
19127;SDS011;9696;53.686;10.094;2022-07-06T09:54:39;1.55;;;0.32;;
19127;SDS011;9696;53.686;10.094;2022-07-06T09:57:08;2.15;;;0.28;;
19127;SDS011;9696;53.686;10.094;2022-07-06T09:59:38;2.30;;;0.40;;
19127;SDS011;9696;53.686;10.094;2022-07-06T10:02:07;1.77;;;0.40;;
19127;SDS011;9696;53.686;10.094;2022-07-06T10:04:36;1.45;;;0.45;;
19127;SDS011;9696;53.686;10.094;2022-07-06T10:07:05;0.50;;;0.20;;
19127;SDS011;9696;53.686;10.094;2022-07-06T10:09:37;0.82;;;0.20;;
19127;SDS011;9696;53.686;10.094;2022-07-06T10:12:06;1.58;;;0.30;;
19127;SDS011;9696;53.686;10.094;2022-07-06T10:14:39;2.35;;;0.50;;
19127;SDS011;9696;53.686;10.094;2022-07-06T10:17:16;2.45;;;0.25;;
19127;SDS011;9696;53.686;10.094;2022-07-06T10:19:45;0.70;;;0.20;;
19127;SDS011;9696;53.686;10.094;2022-07-06T10:22:15;1.55;;;0.25;;
19127;SDS011;9696;53.686;10.094;2022-07-06T10:24:45;1.33;;;0.30;;
19127;SDS011;9696;53.686;10.094;2022-07-06T10:27:15;1.20;;;0.47;;
19127;SDS011;9696;53.686;10.094;2022-07-06T10:29:45;1.65;;;0.03;;
19127;SDS011;9696;53.686;10.094;2022-07-06T10:32:13;2.53;;;0.28;;
19127;SDS011;9696;53.686;10.094;2022-07-06T10:34:45;4.28;;;0.85;;
19127;SDS011;9696;53.686;10.094;2022-07-06T10:37:21;4.10;;;0.35;;
19127;SDS011;9696;53.686;10.094;2022-07-06T10:39:50;3.05;;;0.50;;
19127;SDS011;9696;53.686;10.094;2022-07-06T10:42:40;1.80;;;0.28;;
19127;SDS011;9696;53.686;10.094;2022-07-06T10:45:12;4.20;;;0.68;;
19127;SDS011;9696;53.686;10.094;2022-07-06T10:47:41;3.22;;;0.40;;
19127;SDS011;9696;53.686;10.094;2022-07-06T10:50:10;4.32;;;0.40;;
19127;SDS011;9696;53.686;10.094;2022-07-06T10:52:49;2.22;;;0.20;;
19127;SDS011;9696;53.686;10.094;2022-07-06T10:55:28;2.13;;;0.40;;
19127;SDS011;9696;53.686;10.094;2022-07-06T10:57:57;2.78;;;0.25;;
19127;SDS011;9696;53.686;10.094;2022-07-06T11:03:37;2.60;;;0.30;;
19127;SDS011;9696;53.686;10.094;2022-07-06T11:06:11;1.45;;;0.32;;
19127;SDS011;9696;53.686;10.094;2022-07-06T11:08:42;2.38;;;0.40;;
19127;SDS011;9696;53.686;10.094;2022-07-06T11:11:11;1.90;;;0.28;;
19127;SDS011;9696;53.686;10.094;2022-07-06T11:13:43;2.53;;;0.32;;
19127;SDS011;9696;53.686;10.094;2022-07-06T11:16:18;2.92;;;0.40;;
19127;SDS011;9696;53.686;10.094;2022-07-06T11:21:43;5.93;;;0.40;;
19127;SDS011;9696;53.686;10.094;2022-07-06T11:24:13;2.10;;;0.45;;
19127;SDS011;9696;53.686;10.094;2022-07-06T11:26:43;4.95;;;0.40;;
19127;SDS011;9696;53.686;10.094;2022-07-06T11:29:13;0.85;;;0.30;;
19127;SDS011;9696;53.686;10.094;2022-07-06T11:31:43;2.90;;;0.43;;
19127;SDS011;9696;53.686;10.094;2022-07-06T11:34:19;1.10;;;0.30;;
19127;SDS011;9696;53.686;10.094;2022-07-06T11:36:49;2.38;;;0.50;;
19127;SDS011;9696;53.686;10.094;2022-07-06T11:39:21;3.38;;;0.57;;
19127;SDS011;9696;53.686;10.094;2022-07-06T11:41:50;2.78;;;0.22;;
19127;SDS011;9696;53.686;10.094;2022-07-06T11:44:18;3.95;;;0.40;;
19127;SDS011;9696;53.686;10.094;2022-07-06T11:46:47;4.40;;;0.30;;
19127;SDS011;9696;53.686;10.094;2022-07-06T11:49:17;1.52;;;0.50;;
19127;SDS011;9696;53.686;10.094;2022-07-06T11:51:45;1.15;;;0.35;;
19127;SDS011;9696;53.686;10.094;2022-07-06T11:54:15;2.25;;;0.30;;
19127;SDS011;9696;53.686;10.094;2022-07-06T11:56:48;2.38;;;0.32;;
19127;SDS011;9696;53.686;10.094;2022-07-06T11:59:20;2.35;;;0.32;;
19127;SDS011;9696;53.686;10.094;2022-07-06T12:01:49;3.25;;;0.45;;
19127;SDS011;9696;53.686;10.094;2022-07-06T12:04:26;2.28;;;0.30;;
19127;SDS011;9696;53.686;10.094;2022-07-06T12:06:55;2.00;;;0.20;;
19127;SDS011;9696;53.686;10.094;2022-07-06T12:09:28;5.00;;;0.40;;
19127;SDS011;9696;53.686;10.094;2022-07-06T12:11:58;5.38;;;0.65;;
19127;SDS011;9696;53.686;10.094;2022-07-06T12:14:29;10.25;;;0.43;;
19127;SDS011;9696;53.686;10.094;2022-07-06T12:17:02;3.20;;;0.20;;
19127;SDS011;9696;53.686;10.094;2022-07-06T12:19:33;1.65;;;0.20;;
19127;SDS011;9696;53.686;10.094;2022-07-06T12:22:02;3.15;;;0.25;;
19127;SDS011;9696;53.686;10.094;2022-07-06T12:24:32;0.75;;;0.20;;
19127;SDS011;9696;53.686;10.094;2022-07-06T12:27:09;5.03;;;0.35;;
19127;SDS011;9696;53.686;10.094;2022-07-06T12:29:38;1.95;;;0.40;;
19127;SDS011;9696;53.686;10.094;2022-07-06T12:32:13;1.42;;;0.25;;
19127;SDS011;9696;53.686;10.094;2022-07-06T12:34:43;4.18;;;0.22;;
19127;SDS011;9696;53.686;10.094;2022-07-06T12:37:12;0.68;;;0.30;;
19127;SDS011;9696;53.686;10.094;2022-07-06T12:39:42;1.15;;;0.20;;
19127;SDS011;9696;53.686;10.094;2022-07-06T12:42:13;1.98;;;0.20;;
19127;SDS011;9696;53.686;10.094;2022-07-06T12:44:46;0.45;;;0.20;;
19127;SDS011;9696;53.686;10.094;2022-07-06T12:47:16;2.28;;;0.20;;
19127;SDS011;9696;53.686;10.094;2022-07-06T12:49:49;1.38;;;0.20;;
19127;SDS011;9696;53.686;10.094;2022-07-06T12:52:31;0.85;;;0.13;;
19127;SDS011;9696;53.686;10.094;2022-07-06T12:55:00;1.23;;;0.10;;
19127;SDS011;9696;53.686;10.094;2022-07-06T12:57:42;2.35;;;0.28;;
19127;SDS011;9696;53.686;10.094;2022-07-06T13:00:11;2.53;;;0.20;;
19127;SDS011;9696;53.686;10.094;2022-07-06T13:02:43;0.30;;;0.15;;
19127;SDS011;9696;53.686;10.094;2022-07-06T13:05:34;1.55;;;0.20;;
19127;SDS011;9696;53.686;10.094;2022-07-06T13:08:05;0.60;;;0.10;;
19127;SDS011;9696;53.686;10.094;2022-07-06T13:10:34;1.98;;;0.25;;
19127;SDS011;9696;53.686;10.094;2022-07-06T13:13:03;0.30;;;0.15;;
19127;SDS011;9696;53.686;10.094;2022-07-06T13:15:35;3.72;;;0.43;;
19127;SDS011;9696;53.686;10.094;2022-07-06T13:18:04;2.90;;;0.50;;
19127;SDS011;9696;53.686;10.094;2022-07-06T13:20:40;2.88;;;0.28;;
19127;SDS011;9696;53.686;10.094;2022-07-06T13:23:09;8.93;;;0.52;;
19127;SDS011;9696;53.686;10.094;2022-07-06T13:25:37;2.05;;;0.30;;
19127;SDS011;9696;53.686;10.094;2022-07-06T13:28:05;8.40;;;0.28;;
19127;SDS011;9696;53.686;10.094;2022-07-06T13:30:34;1.85;;;0.20;;
19127;SDS011;9696;53.686;10.094;2022-07-06T13:33:02;3.63;;;0.30;;
19127;SDS011;9696;53.686;10.094;2022-07-06T13:35:31;3.35;;;0.45;;
19127;SDS011;9696;53.686;10.094;2022-07-06T13:38:01;6.45;;;0.40;;
19127;SDS011;9696;53.686;10.094;2022-07-06T13:40:29;1.17;;;0.20;;
19127;SDS011;9696;53.686;10.094;2022-07-06T13:42:58;2.35;;;0.38;;
19127;SDS011;9696;53.686;10.094;2022-07-06T13:45:26;2.63;;;0.38;;
19127;SDS011;9696;53.686;10.094;2022-07-06T13:47:55;2.25;;;0.30;;
19127;SDS011;9696;53.686;10.094;2022-07-06T13:50:24;7.55;;;0.50;;
19127;SDS011;9696;53.686;10.094;2022-07-06T13:52:54;0.95;;;0.22;;
19127;SDS011;9696;53.686;10.094;2022-07-06T13:55:23;3.92;;;0.20;;
19127;SDS011;9696;53.686;10.094;2022-07-06T13:57:52;0.80;;;0.30;;
19127;SDS011;9696;53.686;10.094;2022-07-06T14:00:21;4.72;;;0.20;;
19127;SDS011;9696;53.686;10.094;2022-07-06T14:02:49;2.20;;;0.38;;
19127;SDS011;9696;53.686;10.094;2022-07-06T14:05:18;2.03;;;0.30;;
19127;SDS011;9696;53.686;10.094;2022-07-06T14:07:46;6.68;;;0.50;;
19127;SDS011;9696;53.686;10.094;2022-07-06T14:10:15;1.85;;;0.20;;
19127;SDS011;9696;53.686;10.094;2022-07-06T14:12:45;2.67;;;0.25;;
19127;SDS011;9696;53.686;10.094;2022-07-06T14:15:13;4.03;;;0.52;;
19127;SDS011;9696;53.686;10.094;2022-07-06T14:17:42;4.28;;;0.43;;
19127;SDS011;9696;53.686;10.094;2022-07-06T14:20:13;1.70;;;0.30;;
19127;SDS011;9696;53.686;10.094;2022-07-06T14:22:42;1.95;;;0.30;;
19127;SDS011;9696;53.686;10.094;2022-07-06T14:25:10;3.03;;;0.25;;
19127;SDS011;9696;53.686;10.094;2022-07-06T14:27:39;1.48;;;0.20;;
19127;SDS011;9696;53.686;10.094;2022-07-06T14:30:10;1.38;;;0.20;;
19127;SDS011;9696;53.686;10.094;2022-07-06T14:32:38;1.73;;;0.30;;
19127;SDS011;9696;53.686;10.094;2022-07-06T14:35:09;2.28;;;0.40;;
19127;SDS011;9696;53.686;10.094;2022-07-06T14:37:40;1.63;;;0.20;;
19127;SDS011;9696;53.686;10.094;2022-07-06T14:40:09;2.60;;;0.20;;
19127;SDS011;9696;53.686;10.094;2022-07-06T14:42:37;1.75;;;0.22;;
19127;SDS011;9696;53.686;10.094;2022-07-06T14:45:06;0.95;;;0.20;;
19127;SDS011;9696;53.686;10.094;2022-07-06T14:47:36;2.33;;;0.20;;
19127;SDS011;9696;53.686;10.094;2022-07-06T14:50:05;0.90;;;0.20;;
19127;SDS011;9696;53.686;10.094;2022-07-06T14:52:33;4.72;;;0.45;;
19127;SDS011;9696;53.686;10.094;2022-07-06T14:55:02;3.15;;;0.32;;
19127;SDS011;9696;53.686;10.094;2022-07-06T14:57:39;1.08;;;0.20;;
19127;SDS011;9696;53.686;10.094;2022-07-06T15:00:08;1.08;;;0.10;;
19127;SDS011;9696;53.686;10.094;2022-07-06T15:02:39;4.60;;;0.30;;
19127;SDS011;9696;53.686;10.094;2022-07-06T15:05:08;4.50;;;0.30;;
19127;SDS011;9696;53.686;10.094;2022-07-06T15:07:36;8.57;;;0.63;;
19127;SDS011;9696;53.686;10.094;2022-07-06T15:10:05;2.90;;;0.32;;